Time;durP1;ratioP1;P1;durP2;ratioP2;P2;SDS_P1;SDS_P2;PMS_P1;PMS_P2;Temp;Humidity;BMP_temperature;BMP_pressure;BME280_temperature;BME280_humidity;BME280_pressure;Samples;Min_cycle;Max_cycle;Signal;HPM_P1;HPM_P2
2024/01/24 00:01:46;;;;;;;;;;;;;;;6.57;75.80;98654.06;5008916;28;20354;-75
2024/01/24 00:04:34;;;;;;;;;;;;;;;6.67;74.93;98655.97;5013564;28;19933;-75
2024/01/24 00:07:24;;;;;;;;;;;;;;;6.71;75.10;98648.94;5002817;28;20412;-76
2024/01/24 00:10:12;;;;;;;;;;;;;;;6.72;75.05;98650.59;5019683;28;19925;-76
2024/01/24 00:13:01;;;;;;;;;;;;;;;6.84;74.44;98664.63;5011157;28;19932;-75
2024/01/24 00:15:49;;;;;;;;;;;;;;;6.75;74.93;98661.63;4999816;28;20157;-76
2024/01/24 00:18:37;;;;;;;;;;;;;;;6.81;74.94;98665.97;5009432;28;19925;-75
2024/01/24 00:21:26;;;;;;;;;;;;;;;6.71;75.09;98671.38;4996948;28;20278;-77
2024/01/24 00:24:16;;;;;;;;;;;;;;;6.80;75.14;98660.84;5014151;28;19936;-76
2024/01/24 00:27:05;;;;;;;;;;;;;;;6.92;74.79;98649.78;4996154;28;19934;-76
2024/01/24 00:29:53;;;;;;;;;;;;;;;6.87;74.82;98636.25;5007858;28;19925;-75
2024/01/24 00:32:41;;;;;;;;;;;;;;;6.92;74.23;98633.56;5006054;28;19925;-76
2024/01/24 00:35:29;;;;;;;;;;;;;;;6.97;74.01;98604.66;4995963;28;19929;-76
2024/01/24 00:38:18;;;;;;;;;;;;;;;6.98;74.50;98613.59;4996059;28;20158;-76
2024/01/24 00:41:07;;;;;;;;;;;;;;;6.86;74.51;98624.66;4995542;28;20300;-76
2024/01/24 00:43:55;;;;;;;;;;;;;;;6.92;74.39;98609.25;5012614;28;19933;-76
2024/01/24 00:46:43;;;;;;;;;;;;;;;6.77;75.06;98605.50;5005548;28;20012;-76
2024/01/24 00:49:32;;;;;;;;;;;;;;;6.79;75.08;98603.31;4997788;28;19945;-79
2024/01/24 00:52:19;;;;;;;;;;;;;;;6.84;74.56;98599.81;5021288;28;19933;-78
2024/01/24 00:55:08;;;;;;;;;;;;;;;6.86;74.50;98592.25;5016567;28;19939;-78
2024/01/24 00:57:58;;;;;;;;;;;;;;;6.97;74.12;98584.94;5011828;28;19925;-76
2024/01/24 01:00:46;;;;;;;;;;;;;;;7.01;74.25;98575.22;5009904;28;19953;-76
2024/01/24 01:03:34;;;;;;;;;;;;;;;6.86;74.41;98569.81;5009834;28;19925;-77
2024/01/24 01:06:22;;;;;;;;;;;;;;;7.03;74.31;98559.53;5010872;28;19925;-76
2024/01/24 01:09:10;;;;;;;;;;;;;;;6.98;74.30;98559.56;5008036;28;20035;-77
2024/01/24 01:11:58;;;;;;;;;;;;;;;7.01;74.35;98559.00;5005140;28;19929;-76
2024/01/24 01:14:48;;;;;;;;;;;;;;;6.94;74.38;98553.91;5011764;28;19944;-75
2024/01/24 01:17:36;;;;;;;;;;;;;;;7.05;74.24;98550.09;5011725;28;19925;-76
2024/01/24 01:20:24;;;;;;;;;;;;;;;6.98;74.66;98562.28;4995497;28;20043;-77
2024/01/24 01:23:12;;;;;;;;;;;;;;;6.99;74.31;98561.19;5006060;28;20681;-76
2024/01/24 01:26:00;;;;;;;;;;;;;;;6.88;74.65;98562.28;5003904;28;20381;-76
2024/01/24 01:28:48;;;;;;;;;;;;;;;7.04;74.23;98555.78;5002339;28;19934;-76
2024/01/24 01:31:38;;;;;;;;;;;;;;;7.09;74.37;98561.19;5000573;28;20349;-76
2024/01/24 01:34:26;;;;;;;;;;;;;;;7.04;74.61;98539.56;5009452;28;20004;-76
2024/01/24 01:37:14;;;;;;;;;;;;;;;7.02;74.17;98539.00;5009781;28;20385;-76
2024/01/24 01:40:02;;;;;;;;;;;;;;;7.06;74.17;98532.00;4992598;28;19926;-76
2024/01/24 01:42:50;;;;;;;;;;;;;;;7.03;73.97;98546.03;5008668;28;20838;-76
2024/01/24 01:45:38;;;;;;;;;;;;;;;7.00;74.31;98533.09;5004824;28;19967;-76
2024/01/24 01:48:28;;;;;;;;;;;;;;;6.99;74.42;98537.69;5011605;28;19933;-76
2024/01/24 01:51:16;;;;;;;;;;;;;;;7.14;73.61;98534.16;5010115;28;19929;-76
2024/01/24 01:54:04;;;;;;;;;;;;;;;7.08;73.84;98527.13;5011718;28;20412;-77
2024/01/24 01:56:52;;;;;;;;;;;;;;;7.15;73.54;98541.16;5005982;28;19925;-76
2024/01/24 01:59:40;;;;;;;;;;;;;;;7.13;73.82;98537.09;5015027;28;19933;-78
2024/01/24 02:02:28;;;;;;;;;;;;;;;7.17;73.72;98533.59;5008091;28;19925;-76
2024/01/24 02:05:18;;;;;;;;;;;;;;;7.17;74.15;98528.19;5004939;28;19929;-76
2024/01/24 02:08:07;;;;;;;;;;;;;;;7.16;73.69;98526.56;5002884;28;19947;-75
2024/01/24 02:10:56;;;;;;;;;;;;;;;7.18;73.66;98518.19;5008000;28;19952;-76
2024/01/24 02:13:44;;;;;;;;;;;;;;;7.15;73.91;98511.44;5013412;28;19925;-75
2024/01/24 02:16:32;;;;;;;;;;;;;;;7.19;73.77;98519.78;5016241;28;20397;-76
2024/01/24 02:19:21;;;;;;;;;;;;;;;7.20;73.83;98494.41;4999682;28;20022;-76
2024/01/24 02:22:10;;;;;;;;;;;;;;;7.16;73.93;98498.75;5008617;28;19929;-76
2024/01/24 02:24:59;;;;;;;;;;;;;;;7.18;74.01;98486.56;4999010;28;19932;-76
2024/01/24 02:27:47;;;;;;;;;;;;;;;7.23;73.99;98488.44;5014741;28;19936;-75
2024/01/24 02:30:35;;;;;;;;;;;;;;;7.27;73.84;98484.91;4994786;28;19926;-76
2024/01/24 02:33:23;;;;;;;;;;;;;;;7.31;73.40;98480.59;5010020;28;19936;-76
2024/01/24 02:36:14;;;;;;;;;;;;;;;7.33;73.36;98488.41;5008038;28;19956;-77
2024/01/24 02:39:03;;;;;;;;;;;;;;;7.40;73.30;98488.09;4990151;28;19930;-76
2024/01/24 02:41:53;;;;;;;;;;;;;;;7.40;73.30;98478.09;5000685;28;19925;-75
2024/01/24 02:44:41;;;;;;;;;;;;;;;7.34;73.46;98471.91;4996783;28;20408;-77
2024/01/24 02:47:29;;;;;;;;;;;;;;;7.39;73.05;98456.75;5007248;28;19933;-76
2024/01/24 02:50:17;;;;;;;;;;;;;;;7.47;73.43;98448.09;4997125;28;19937;-76
2024/01/24 02:53:05;;;;;;;;;;;;;;;7.45;73.28;98452.94;4994536;28;19925;-76
2024/01/24 02:55:53;;;;;;;;;;;;;;;7.51;73.04;98452.66;5008234;28;20296;-76
2024/01/24 02:58:42;;;;;;;;;;;;;;;7.54;73.33;98443.97;4995689;28;19932;-76
2024/01/24 03:04:43;;;;;;;;;;;;;;;7.61;73.13;98420.13;4997736;28;20520;-76
2024/01/24 03:07:32;;;;;;;;;;;;;;;7.68;72.77;98419.84;5007935;28;19977;-76
2024/01/24 03:10:21;;;;;;;;;;;;;;;7.64;72.70;98432.31;5010019;28;19933;-75
2024/01/24 03:13:09;;;;;;;;;;;;;;;7.64;73.05;98432.31;4996633;28;19976;-77
2024/01/24 03:16:00;;;;;;;;;;;;;;;7.68;72.82;98436.06;5015014;28;19936;-76
2024/01/24 03:18:48;;;;;;;;;;;;;;;7.73;72.91;98440.66;4998185;28;19929;-77
2024/01/24 03:21:37;;;;;;;;;;;;;;;7.70;73.52;98447.41;5004520;28;19936;-76
2024/01/24 03:24:25;;;;;;;;;;;;;;;7.70;73.59;98444.72;5009828;28;19926;-76
2024/01/24 03:27:13;;;;;;;;;;;;;;;7.82;74.69;98452.47;5005034;28;20014;-75
2024/01/24 03:30:01;;;;;;;;;;;;;;;7.98;74.63;98445.88;5011108;28;19938;-76
2024/01/24 03:32:51;;;;;;;;;;;;;;;8.12;75.26;98446.06;5001236;28;20317;-77
2024/01/24 03:35:39;;;;;;;;;;;;;;;8.22;75.54;98437.88;5014594;28;19932;-76
2024/01/24 03:38:27;;;;;;;;;;;;;;;8.34;75.67;98454.53;5008832;28;19925;-78
2024/01/24 03:41:15;;;;;;;;;;;;;;;8.46;75.65;98446.09;5018587;28;20068;-76
2024/01/24 03:44:03;;;;;;;;;;;;;;;8.56;75.44;98456.03;5011177;28;19949;-75
2024/01/24 03:46:53;;;;;;;;;;;;;;;8.60;75.50;98430.00;5002177;28;19926;-75
2024/01/24 03:49:42;;;;;;;;;;;;;;;8.64;75.29;98421.00;4996114;28;20388;-76
2024/01/24 03:52:31;;;;;;;;;;;;;;;8.71;74.97;98412.53;5015687;28;19933;-76
2024/01/24 03:55:19;;;;;;;;;;;;;;;8.74;74.96;98397.63;5016335;28;19987;-76
2024/01/24 03:58:07;;;;;;;;;;;;;;;8.80;74.76;98405.41;5017489;28;20889;-76
2024/01/24 04:00:55;;;;;;;;;;;;;;;8.82;74.58;98411.34;5018070;28;20008;-75
2024/01/24 04:03:44;;;;;;;;;;;;;;;8.87;74.53;98430.25;4993760;28;20067;-75
2024/01/24 04:06:33;;;;;;;;;;;;;;;8.89;74.51;98422.66;5013431;28;19932;-76
2024/01/24 04:09:22;;;;;;;;;;;;;;;8.90;74.40;98432.41;5004778;28;19926;-76
2024/01/24 04:12:10;;;;;;;;;;;;;;;8.95;74.33;98430.72;5004512;28;19925;-76
2024/01/24 04:14:58;;;;;;;;;;;;;;;8.97;73.91;98417.69;5015648;28;19933;-77
2024/01/24 04:17:46;;;;;;;;;;;;;;;8.99;74.04;98424.44;5011641;28;20374;-79
2024/01/24 04:20:34;;;;;;;;;;;;;;;8.98;74.02;98424.72;4995440;28;19925;-78
2024/01/24 04:23:24;;;;;;;;;;;;;;;8.98;74.14;98440.97;5009402;28;19927;-76
2024/01/24 04:26:12;;;;;;;;;;;;;;;9.02;74.08;98436.59;5009281;28;19937;-75
2024/01/24 04:29:00;;;;;;;;;;;;;;;9.03;74.20;98458.00;4990577;28;20025;-78
2024/01/24 04:31:48;;;;;;;;;;;;;;;9.09;74.16;98442.47;5011428;28;19929;-77
2024/01/24 04:34:39;;;;;;;;;;;;;;;9.12;74.12;98431.88;5010061;28;20339;-76
2024/01/24 04:37:27;;;;;;;;;;;;;;;9.14;74.15;98439.72;4998642;28;19933;-75
2024/01/24 04:40:17;;;;;;;;;;;;;;;9.15;74.10;98444.84;5005760;28;20008;-76
2024/01/24 04:43:05;;;;;;;;;;;;;;;9.18;74.30;98440.75;5008351;28;19925;-76
2024/01/24 04:45:53;;;;;;;;;;;;;;;9.23;74.00;98440.69;5008560;28;19936;-76
2024/01/24 04:48:42;;;;;;;;;;;;;;;9.27;74.22;98433.59;5012605;28;19929;-76
2024/01/24 04:51:30;;;;;;;;;;;;;;;9.34;73.78;98434.06;5006921;28;20027;-75
2024/01/24 04:54:19;;;;;;;;;;;;;;;9.41;73.51;98434.50;5010265;28;19929;-76
2024/01/24 04:57:08;;;;;;;;;;;;;;;9.48;73.19;98423.31;5010356;28;19926;-75
2024/01/24 04:59:56;;;;;;;;;;;;;;;9.53;73.04;98415.09;4996434;28;19931;-74
2024/01/24 05:02:47;;;;;;;;;;;;;;;9.61;72.85;98410.94;5009917;28;20384;-75
2024/01/24 05:05:35;;;;;;;;;;;;;;;9.65;72.97;98401.13;5007647;28;19926;-76
2024/01/24 05:08:24;;;;;;;;;;;;;;;9.70;72.56;98403.75;5008153;28;19926;-76
2024/01/24 05:11:13;;;;;;;;;;;;;;;9.76;72.34;98390.91;5010782;28;19937;-76
2024/01/24 05:14:02;;;;;;;;;;;;;;;9.83;72.27;98391.34;5009609;28;19936;-76
2024/01/24 05:16:50;;;;;;;;;;;;;;;9.98;72.04;98385.69;5005624;28;19937;-78
2024/01/24 05:19:39;;;;;;;;;;;;;;;10.04;71.72;98386.41;5008885;28;19933;-75
2024/01/24 05:22:27;;;;;;;;;;;;;;;10.13;71.55;98362.94;5006781;28;19973;-76
2024/01/24 05:25:15;;;;;;;;;;;;;;;10.23;71.04;98357.31;5009339;28;19932;-75
2024/01/24 05:28:04;;;;;;;;;;;;;;;10.31;70.81;98353.13;5005380;28;20463;-76
2024/01/24 05:30:54;;;;;;;;;;;;;;;10.34;70.65;98358.78;4991855;28;20009;-75
2024/01/24 05:33:42;;;;;;;;;;;;;;;10.36;70.29;98356.56;5010642;28;19930;-76
2024/01/24 05:36:30;;;;;;;;;;;;;;;10.40;70.20;98371.16;5006844;28;19929;-77
2024/01/24 05:39:19;;;;;;;;;;;;;;;10.39;70.07;98361.41;5003657;28;19926;-77
2024/01/24 05:42:08;;;;;;;;;;;;;;;10.38;69.92;98362.50;5004098;28;19932;-76
2024/01/24 05:44:56;;;;;;;;;;;;;;;10.40;69.85;98360.31;5006001;28;19932;-76
2024/01/24 05:47:45;;;;;;;;;;;;;;;10.43;69.73;98350.75;4998535;28;20328;-75
2024/01/24 05:50:33;;;;;;;;;;;;;;;10.47;69.35;98349.84;5010461;28;20302;-78
2024/01/24 05:53:22;;;;;;;;;;;;;;;10.47;69.39;98338.97;5009841;28;19936;-76
2024/01/24 05:56:10;;;;;;;;;;;;;;;10.45;69.37;98327.63;4999943;28;19925;-76
2024/01/24 05:58:58;;;;;;;;;;;;;;;10.48;69.37;98337.88;5008821;28;19944;-76
2024/01/24 06:01:46;;;;;;;;;;;;;;;10.45;69.59;98333.06;5007122;28;19934;-75
2024/01/24 06:04:35;;;;;;;;;;;;;;;10.46;69.64;98337.38;4994895;28;19932;-87
2024/01/24 06:07:24;;;;;;;;;;;;;;;10.46;70.05;98323.78;4989541;28;20413;-92
2024/01/24 06:10:13;;;;;;;;;;;;;;;10.48;70.16;98328.91;5015632;28;19930;-92
2024/01/24 06:13:01;;;;;;;;;;;;;;;10.57;70.00;98334.47;5011552;28;19930;-91
2024/01/24 06:15:49;;;;;;;;;;;;;;;10.59;70.10;98321.38;5004477;28;19925;-91
2024/01/24 06:18:37;;;;;;;;;;;;;;;10.72;69.90;98332.25;4999356;28;19925;-93
2024/01/24 06:21:27;;;;;;;;;;;;;;;10.69;69.79;98321.19;5009216;28;20420;-79
2024/01/24 06:24:15;;;;;;;;;;;;;;;10.66;70.10;98314.44;5012797;28;19932;-92
2024/01/24 06:27:03;;;;;;;;;;;;;;;10.72;69.79;98326.03;5006315;28;19968;-78
2024/01/24 06:29:52;;;;;;;;;;;;;;;10.80;69.92;98332.66;5004264;28;19937;-75
2024/01/24 06:33:00;;;;;;;;;;;;;;;10.84;70.33;98329.03;5007965;28;19929;-75
2024/01/24 06:35:48;;;;;;;;;;;;;;;10.82;71.16;98323.09;4996684;28;19929;-78
2024/01/24 06:38:38;;;;;;;;;;;;;;;10.77;72.01;98334.06;5010081;28;19932;-91
2024/01/24 06:41:26;;;;;;;;;;;;;;;10.76;71.78;98343.34;5007325;28;20008;-74
2024/01/24 06:44:15;;;;;;;;;;;;;;;10.73;72.45;98335.78;5005945;28;19959;-76
2024/01/24 06:47:03;;;;;;;;;;;;;;;10.70;72.66;98333.66;5006184;28;19929;-75
2024/01/24 06:49:51;;;;;;;;;;;;;;;10.60;73.18;98323.81;4993062;28;19929;-75
2024/01/24 06:52:39;;;;;;;;;;;;;;;10.66;72.91;98317.16;4998396;28;20328;-76
2024/01/24 06:55:28;;;;;;;;;;;;;;;10.69;73.04;98319.25;5006799;28;19952;-76
2024/01/24 06:58:17;;;;;;;;;;;;;;;10.71;72.74;98319.78;4994201;28;19925;-75
2024/01/24 07:01:05;;;;;;;;;;;;;;;10.63;73.24;98320.47;5001167;28;19975;-74
2024/01/24 07:03:53;;;;;;;;;;;;;;;10.74;72.92;98313.72;4995952;28;19990;-77
2024/01/24 07:06:42;;;;;;;;;;;;;;;10.69;72.87;98304.88;4998437;28;19933;-76
2024/01/24 07:09:35;;;;;;;;;;;;;;;10.77;72.51;98309.63;4995657;28;20018;-74
2024/01/24 07:12:24;;;;;;;;;;;;;;;10.73;72.78;98330.34;5012746;28;19929;-77
2024/01/24 07:15:12;;;;;;;;;;;;;;;10.74;72.68;98321.88;5008530;28;19934;-75
2024/01/24 07:18:01;;;;;;;;;;;;;;;10.71;72.84;98335.28;5004008;28;20416;-75
2024/01/24 07:20:49;;;;;;;;;;;;;;;10.85;72.17;98338.00;5005846;28;20392;-74
2024/01/24 07:23:39;;;;;;;;;;;;;;;10.84;72.26;98337.19;5003021;28;19968;-77
2024/01/24 07:26:28;;;;;;;;;;;;;;;10.83;72.44;98338.31;4999179;28;19926;-75
2024/01/24 07:29:17;;;;;;;;;;;;;;;10.89;72.29;98323.50;5005471;28;19932;-75
2024/01/24 07:32:06;;;;;;;;;;;;;;;10.84;72.55;98312.72;5008202;28;19926;-74
2024/01/24 07:34:54;;;;;;;;;;;;;;;10.86;72.82;98326.81;4995020;28;20278;-74
2024/01/24 07:37:44;;;;;;;;;;;;;;;10.91;72.66;98304.16;4994095;28;20507;-73
2024/01/24 07:40:32;;;;;;;;;;;;;;;10.87;73.15;98303.97;5016265;28;20388;-72
2024/01/24 07:43:21;;;;;;;;;;;;;;;10.88;73.27;98326.53;4994147;28;19925;-75
2024/01/24 07:46:11;;;;;;;;;;;;;;;10.97;73.16;98321.97;5010525;28;19952;-75
2024/01/24 07:49:00;;;;;;;;;;;;;;;10.89;73.40;98315.34;4986844;28;19925;-74
2024/01/24 07:51:48;;;;;;;;;;;;;;;10.86;73.72;98328.72;4997857;28;19925;-75
2024/01/24 07:54:37;;;;;;;;;;;;;;;10.93;73.63;98307.41;4989635;28;19930;-75
2024/01/24 07:57:28;;;;;;;;;;;;;;;10.88;73.53;98313.75;5007288;28;19925;-75
2024/01/24 08:00:17;;;;;;;;;;;;;;;10.93;73.34;98316.34;4999761;28;19932;-74
2024/01/24 08:03:07;;;;;;;;;;;;;;;10.90;73.62;98322.38;5017521;28;19973;-75
2024/01/24 08:05:56;;;;;;;;;;;;;;;10.93;73.42;98321.00;5009085;28;20400;-74
2024/01/24 08:08:44;;;;;;;;;;;;;;;11.01;73.44;98310.19;4996386;28;19925;-75
2024/01/24 08:11:32;;;;;;;;;;;;;;;11.04;73.69;98313.44;5006128;28;19987;-77
2024/01/24 08:14:20;;;;;;;;;;;;;;;11.09;73.53;98297.81;4992673;28;19925;-75
2024/01/24 08:17:10;;;;;;;;;;;;;;;11.10;73.68;98296.69;5007361;28;19948;-75
2024/01/24 08:20:00;;;;;;;;;;;;;;;11.19;73.56;98303.03;5006681;28;19932;-75
2024/01/24 08:22:48;;;;;;;;;;;;;;;11.26;73.41;98319.72;5013656;28;19933;-75
2024/01/24 08:25:36;;;;;;;;;;;;;;;11.22;74.13;98313.28;5003832;28;20055;-74
2024/01/24 08:28:24;;;;;;;;;;;;;;;11.30;74.19;98313.69;5020310;28;20380;-75
2024/01/24 08:31:13;;;;;;;;;;;;;;;11.25;74.59;98323.56;5012332;28;19965;-76
2024/01/24 08:34:01;;;;;;;;;;;;;;;11.34;74.67;98337.22;5001948;28;20396;-75
2024/01/24 08:36:50;;;;;;;;;;;;;;;11.26;75.29;98330.59;5003594;28;19985;-75
2024/01/24 08:39:39;;;;;;;;;;;;;;;11.24;75.62;98321.97;5015223;28;19953;-76
2024/01/24 08:42:29;;;;;;;;;;;;;;;11.28;75.75;98330.28;5011183;28;19940;-77
2024/01/24 08:45:17;;;;;;;;;;;;;;;11.37;75.63;98343.97;5013497;28;20012;-73
2024/01/24 08:48:07;;;;;;;;;;;;;;;11.32;76.04;98328.56;5000314;28;20365;-75
2024/01/24 08:50:55;;;;;;;;;;;;;;;11.32;75.95;98328.56;5014962;28;19960;-74
2024/01/24 08:53:46;;;;;;;;;;;;;;;11.31;76.24;98326.97;5009382;28;19925;-74
2024/01/24 08:56:34;;;;;;;;;;;;;;;11.34;76.08;98322.81;5013573;28;20018;-73
2024/01/24 08:59:22;;;;;;;;;;;;;;;11.30;76.48;98324.56;5002571;28;20479;-75
2024/01/24 09:02:10;;;;;;;;;;;;;;;11.18;76.98;98338.66;5011476;28;20038;-77
2024/01/24 09:04:58;;;;;;;;;;;;;;;11.27;76.90;98334.13;5006753;28;20020;-76
2024/01/24 09:07:46;;;;;;;;;;;;;;;11.24;77.13;98321.97;5013024;28;19936;-76
2024/01/24 09:10:36;;;;;;;;;;;;;;;11.34;76.95;98329.06;5009053;28;19930;-93
2024/01/24 09:13:25;;;;;;;;;;;;;;;11.27;77.22;98328.69;4999937;28;20339;-80
2024/01/24 09:16:13;;;;;;;;;;;;;;;11.36;76.90;98315.97;5002798;28;20019;-76
2024/01/24 09:19:01;;;;;;;;;;;;;;;11.32;77.35;98333.22;5004862;28;20292;-75
2024/01/24 09:21:49;;;;;;;;;;;;;;;11.32;77.38;98346.81;5016485;28;19926;-76
2024/01/24 09:24:38;;;;;;;;;;;;;;;11.33;77.42;98351.13;5000759;28;19937;-75
2024/01/24 09:27:28;;;;;;;;;;;;;;;11.32;77.68;98344.91;5008148;28;19932;-76
2024/01/24 09:30:16;;;;;;;;;;;;;;;11.44;76.97;98325.31;5012473;28;19925;-75
2024/01/24 09:33:04;;;;;;;;;;;;;;;11.50;76.74;98335.81;5013792;28;19926;-76
2024/01/24 09:35:52;;;;;;;;;;;;;;;11.52;76.84;98355.34;5004155;28;20043;-75
2024/01/24 09:38:42;;;;;;;;;;;;;;;11.51;76.42;98329.25;5008777;28;19932;-76
2024/01/24 09:41:31;;;;;;;;;;;;;;;11.61;76.22;98327.38;5010512;28;19941;-75
2024/01/24 09:44:21;;;;;;;;;;;;;;;11.65;76.37;98336.53;5013552;28;19926;-78
2024/01/24 09:47:09;;;;;;;;;;;;;;;11.76;76.79;98327.03;5010326;28;20262;-75
2024/01/24 09:49:59;;;;;;;;;;;;;;;11.67;78.18;98334.34;5004942;28;19932;-78
2024/01/24 09:52:47;;;;;;;;;;;;;;;11.63;79.40;98357.81;5005732;28;19925;-75
2024/01/24 09:55:37;;;;;;;;;;;;;;;11.55;80.87;98370.22;5008158;28;19932;-76
2024/01/24 09:58:25;;;;;;;;;;;;;;;11.53;82.27;98350.69;4997611;28;20601;-74
2024/01/24 10:01:15;;;;;;;;;;;;;;;11.50;82.54;98341.25;5023632;28;20067;-75
2024/01/24 10:04:03;;;;;;;;;;;;;;;11.43;83.57;98340.03;5008604;28;19944;-74
2024/01/24 10:06:51;;;;;;;;;;;;;;;11.51;83.47;98329.25;4998362;28;19929;-76
2024/01/24 10:09:39;;;;;;;;;;;;;;;11.59;83.68;98354.09;4995034;28;19933;-74
2024/01/24 10:12:28;;;;;;;;;;;;;;;11.57;83.96;98361.78;5004541;28;20026;-75
2024/01/24 10:15:16;;;;;;;;;;;;;;;11.53;84.19;98339.81;4997913;28;20273;-74
2024/01/24 10:18:05;;;;;;;;;;;;;;;11.57;84.22;98357.13;5009045;28;19925;-74
2024/01/24 10:20:54;;;;;;;;;;;;;;;11.56;84.51;98377.31;4994531;28;20365;-74
2024/01/24 10:23:43;;;;;;;;;;;;;;;11.62;83.88;98375.28;5006465;28;20289;-76
2024/01/24 10:26:31;;;;;;;;;;;;;;;11.54;84.04;98369.41;5000664;28;19926;-75
2024/01/24 10:29:19;;;;;;;;;;;;;;;11.70;82.67;98393.59;5008102;28;20429;-74
2024/01/24 10:32:09;;;;;;;;;;;;;;;11.80;80.04;98375.09;5001031;28;19925;-72
2024/01/24 10:34:58;;;;;;;;;;;;;;;11.90;79.30;98386.91;4996360;28;19932;-74
2024/01/24 10:37:47;;;;;;;;;;;;;;;12.05;77.35;98362.84;5005041;28;19925;-75
2024/01/24 10:40:39;;;;;;;;;;;;;;;12.14;75.27;98367.53;4998281;28;20245;-74
2024/01/24 10:43:27;;;;;;;;;;;;;;;12.24;72.72;98419.03;5000848;28;20526;-76
2024/01/24 10:46:16;;;;;;;;;;;;;;;12.34;71.53;98386.09;5001664;28;19932;-75
2024/01/24 10:49:04;;;;;;;;;;;;;;;12.37;72.21;98384.69;5018806;28;20369;-76
2024/01/24 10:51:55;;;;;;;;;;;;;;;12.41;70.50;98381.03;4994021;28;19926;-75
2024/01/24 10:54:43;;;;;;;;;;;;;;;12.48;70.90;98370.47;4994927;28;20013;-76
2024/01/24 10:57:32;;;;;;;;;;;;;;;12.57;69.67;98378.72;4996977;28;19925;-74
2024/01/24 11:00:22;;;;;;;;;;;;;;;12.61;68.92;98362.50;4992401;28;19926;-79
2024/01/24 11:03:10;;;;;;;;;;;;;;;12.69;68.80;98383.56;5010117;28;20060;-73
2024/01/24 11:06:00;;;;;;;;;;;;;;;12.77;67.88;98399.94;4993378;28;20063;-73
2024/01/24 11:08:53;;;;;;;;;;;;;;;12.73;66.98;98365.44;5005176;28;20481;-72
2024/01/24 11:11:41;;;;;;;;;;;;;;;12.69;67.25;98376.19;5005481;28;20016;-73
2024/01/24 11:14:30;;;;;;;;;;;;;;;12.70;66.10;98388.69;4995144;28;19932;-75
2024/01/24 11:17:18;;;;;;;;;;;;;;;12.72;66.66;98385.66;4993957;28;20081;-73
2024/01/24 11:20:07;;;;;;;;;;;;;;;12.72;66.36;98396.56;4998168;28;19935;-74
2024/01/24 11:22:56;;;;;;;;;;;;;;;12.68;66.19;98388.22;5014667;28;19937;-74
2024/01/24 11:25:46;;;;;;;;;;;;;;;12.68;66.27;98376.53;5003741;28;20565;-72
2024/01/24 11:28:34;;;;;;;;;;;;;;;12.80;66.49;98368.53;5006387;28;20009;-73
2024/01/24 11:31:36;;;;;;;;;;;;;;;12.77;66.50;98375.41;5008493;28;20385;-72
2024/01/24 11:34:27;;;;;;;;;;;;;;;12.84;66.03;98355.91;4992619;28;20370;-72
2024/01/24 11:37:16;;;;;;;;;;;;;;;12.78;66.85;98355.25;4996912;28;20009;-72
2024/01/24 11:40:04;;;;;;;;;;;;;;;12.74;66.26;98370.59;5008212;28;19925;-72
2024/01/24 11:42:57;;;;;;;;;;;;;;;12.86;65.99;98353.66;5009025;28;19976;-73
2024/01/24 11:45:46;;;;;;;;;;;;;;;12.79;65.76;98365.03;4998849;28;20118;-74
2024/01/24 11:48:34;;;;;;;;;;;;;;;12.78;65.92;98357.97;5000912;28;20016;-72
2024/01/24 11:51:23;;;;;;;;;;;;;;;12.81;65.51;98345.59;4992066;28;19932;-72
2024/01/24 11:54:11;;;;;;;;;;;;;;;12.88;65.05;98347.88;4996633;28;20828;-72
2024/01/24 11:57:00;;;;;;;;;;;;;;;12.87;64.79;98352.53;4999491;28;20307;-72
2024/01/24 11:59:50;;;;;;;;;;;;;;;12.82;64.51;98372.56;5005339;28;20397;-72
2024/01/24 12:02:38;;;;;;;;;;;;;;;12.78;64.24;98344.34;5013684;28;20015;-72
2024/01/24 12:05:26;;;;;;;;;;;;;;;12.78;64.95;98359.84;5013856;28;19929;-72
2024/01/24 12:08:14;;;;;;;;;;;;;;;12.86;64.58;98353.66;4993824;28;19937;-72
2024/01/24 12:11:03;;;;;;;;;;;;;;;12.91;64.46;98349.97;5000487;28;20036;-72
2024/01/24 12:13:52;;;;;;;;;;;;;;;12.94;62.39;98361.03;5011453;28;20027;-72
2024/01/24 12:16:41;;;;;;;;;;;;;;;12.89;62.51;98358.47;5011113;28;19926;-72
2024/01/24 12:19:30;;;;;;;;;;;;;;;12.92;61.91;98368.75;5010041;28;20024;-74
2024/01/24 12:22:18;;;;;;;;;;;;;;;12.93;61.97;98353.19;5015349;28;19937;-74
2024/01/24 12:25:08;;;;;;;;;;;;;;;12.83;61.45;98387.00;5003218;28;19929;-73
2024/01/24 12:27:58;;;;;;;;;;;;;;;12.85;61.51;98354.78;4998984;28;19929;-74
2024/01/24 12:30:47;;;;;;;;;;;;;;;12.96;60.73;98347.91;5012102;28;19932;-74
2024/01/24 12:33:36;;;;;;;;;;;;;;;13.01;60.18;98369.59;5000571;28;19926;-74
2024/01/24 12:36:25;;;;;;;;;;;;;;;13.03;60.99;98358.34;4998976;28;19926;-73
2024/01/24 12:39:13;;;;;;;;;;;;;;;13.00;60.29;98351.63;5014470;28;19933;-74
2024/01/24 12:42:02;;;;;;;;;;;;;;;13.00;60.93;98357.06;5012635;28;20325;-74
2024/01/24 12:44:53;;;;;;;;;;;;;;;13.03;60.69;98378.25;5011507;28;19936;-74
2024/01/24 12:47:42;;;;;;;;;;;;;;;13.05;60.63;98373.31;4996379;28;20012;-74
2024/01/24 12:50:31;;;;;;;;;;;;;;;12.92;59.21;98376.13;5002512;28;19929;-74
2024/01/24 12:53:21;;;;;;;;;;;;;;;12.92;58.33;98390.56;5012324;28;19926;-74
2024/01/24 12:56:10;;;;;;;;;;;;;;;12.87;58.42;98387.97;4998517;28;19925;-75
2024/01/24 12:58:58;;;;;;;;;;;;;;;12.82;58.92;98391.63;5009119;28;19934;-76
2024/01/24 13:01:46;;;;;;;;;;;;;;;12.79;59.45;98396.94;5015200;28;19933;-75
2024/01/24 13:04:34;;;;;;;;;;;;;;;12.79;58.68;98386.84;5000152;28;19929;-75
2024/01/24 13:07:27;;;;;;;;;;;;;;;12.74;59.01;98389.69;5007783;28;19932;-75
2024/01/24 13:10:15;;;;;;;;;;;;;;;12.75;58.40;98396.75;5007334;28;19933;-75
2024/01/24 13:13:04;;;;;;;;;;;;;;;12.83;58.73;98408.81;4999065;28;19925;-75
2024/01/24 13:15:53;;;;;;;;;;;;;;;12.80;58.51;98420.34;4997040;28;19933;-74
2024/01/24 13:18:41;;;;;;;;;;;;;;;12.86;58.68;98410.91;5002887;28;20374;-74
2024/01/24 13:21:29;;;;;;;;;;;;;;;12.81;57.68;98433.66;5010788;28;20377;-75
2024/01/24 13:24:19;;;;;;;;;;;;;;;12.74;58.31;98416.16;5008632;28;19930;-76
2024/01/24 13:27:07;;;;;;;;;;;;;;;12.80;58.74;98436.72;4997042;28;19965;-75
2024/01/24 13:29:56;;;;;;;;;;;;;;;12.84;57.48;98432.25;5010813;28;19933;-75
2024/01/24 13:32:45;;;;;;;;;;;;;;;12.84;55.45;98441.22;5009008;28;20435;-75
2024/01/24 13:35:33;;;;;;;;;;;;;;;12.90;54.75;98430.19;5008313;28;20039;-75
2024/01/24 13:38:21;;;;;;;;;;;;;;;12.87;54.01;98447.16;5005334;28;19933;-80
2024/01/24 13:41:10;;;;;;;;;;;;;;;12.89;53.54;98473.03;5007628;28;19929;-76
2024/01/24 13:43:58;;;;;;;;;;;;;;;12.77;52.38;98454.47;5012859;28;19929;-77
2024/01/24 13:46:47;;;;;;;;;;;;;;;12.72;52.83;98467.44;5014508;28;20460;-75
2024/01/24 13:49:37;;;;;;;;;;;;;;;12.58;52.60;98464.81;5012573;28;19925;-74
2024/01/24 13:52:26;;;;;;;;;;;;;;;12.65;51.18;98475.25;5007365;28;20019;-78
2024/01/24 13:55:14;;;;;;;;;;;;;;;12.72;51.18;98464.72;5014189;28;20440;-73
2024/01/24 13:58:04;;;;;;;;;;;;;;;12.67;50.18;98483.94;5015716;28;20038;-78
2024/01/24 14:00:52;;;;;;;;;;;;;;;12.53;49.24;98471.19;5016836;28;20351;-74
2024/01/24 14:03:42;;;;;;;;;;;;;;;12.41;50.37;98465.50;5015312;28;20296;-75
2024/01/24 14:06:30;;;;;;;;;;;;;;;12.42;50.22;98469.03;5009795;28;19929;-74
2024/01/24 14:09:18;;;;;;;;;;;;;;;12.38;49.95;98478.94;4992049;28;20041;-74
2024/01/24 14:12:08;;;;;;;;;;;;;;;12.30;50.24;98472.28;4989366;28;20462;-74
2024/01/24 14:14:58;;;;;;;;;;;;;;;12.24;50.24;98470.78;4994905;28;20293;-72
2024/01/24 14:17:46;;;;;;;;;;;;;;;12.29;49.49;98497.91;5010376;28;19925;-71
2024/01/24 14:20:35;;;;;;;;;;;;;;;12.29;49.46;98496.00;5008768;28;19925;-71
2024/01/24 14:23:23;;;;;;;;;;;;;;;12.33;49.32;98520.72;4996616;28;19925;-72
2024/01/24 14:26:13;;;;;;;;;;;;;;;12.36;49.16;98508.38;5002734;28;20016;-72
2024/01/24 14:29:01;;;;;;;;;;;;;;;12.37;49.47;98516.28;5008959;28;19925;-72
2024/01/24 14:31:51;;;;;;;;;;;;;;;12.32;49.08;98508.22;5001614;28;20060;-71
2024/01/24 14:34:38;;;;;;;;;;;;;;;12.24;49.48;98512.47;4998234;28;20377;-74
2024/01/24 14:37:29;;;;;;;;;;;;;;;12.26;49.58;98526.59;4992718;28;19925;-71
2024/01/24 14:40:18;;;;;;;;;;;;;;;12.27;49.74;98544.53;5006635;28;19936;-70
2024/01/24 14:43:07;;;;;;;;;;;;;;;12.21;49.84;98550.41;4983889;28;19926;-70
2024/01/24 14:45:56;;;;;;;;;;;;;;;12.29;50.58;98557.84;4993887;28;20333;-71